Terminal Aerodrome Forecast
Issued by NWS

Home | Current Version | Previous Version | Text Only | Print | Product List | Glossary On
Versions: 1 2 3 4 5 6 7 8 9 10 11 12 13 14 15 16 17 18 19 20 21 22 23
000
FTUS43 KABR 231000 AAD
TAFPIR
TAF AMD
KPIR 231000Z 2310/2406 09013KT 6SM BR VCSH BKN007 OVC013
      TEMPO 2310/2313 4SM -SHRA BR SCT006 BKN013 OVC090
     FM231300 09011KT 6SM BR OVC008
     FM231800 12013KT P6SM VCSH BKN020 OVC050
     FM240000 09013KT P6SM VCTS BKN050CB=

USA.gov is the U.S. government's official web portal to all federal, state and local government web resources and services.